sensor_id;sensor_type;location;lat;lon;timestamp;temperature;humidity
32215;DHT22;18708;53.124;23.190;2023-04-06T00:01:21;1.00;1.00
32215;DHT22;18708;53.124;23.190;2023-04-06T00:03:47;1.00;1.00
32215;DHT22;18708;53.124;23.190;2023-04-06T00:06:13;1.10;1.00
32215;DHT22;18708;53.124;23.190;2023-04-06T00:08:38;0.90;1.00
32215;DHT22;18708;53.124;23.190;2023-04-06T00:11:04;0.90;1.00
32215;DHT22;18708;53.124;23.190;2023-04-06T00:13:30;0.90;1.00
32215;DHT22;18708;53.124;23.190;2023-04-06T00:15:56;0.80;1.00
32215;DHT22;18708;53.124;23.190;2023-04-06T00:18:22;0.80;1.00
32215;DHT22;18708;53.124;23.190;2023-04-06T00:20:48;0.70;1.00
32215;DHT22;18708;53.124;23.190;2023-04-06T00:23:14;0.70;1.00
32215;DHT22;18708;53.124;23.190;2023-04-06T00:25:39;0.60;1.00
32215;DHT22;18708;53.124;23.190;2023-04-06T00:28:05;0.60;1.00
32215;DHT22;18708;53.124;23.190;2023-04-06T00:30:31;0.60;1.00
32215;DHT22;18708;53.124;23.190;2023-04-06T00:32:57;0.60;1.00
32215;DHT22;18708;53.124;23.190;2023-04-06T00:35:22;0.70;1.00
32215;DHT22;18708;53.124;23.190;2023-04-06T00:37:48;0.70;1.00
32215;DHT22;18708;53.124;23.190;2023-04-06T00:40:14;0.70;1.00
32215;DHT22;18708;53.124;23.190;2023-04-06T00:42:41;0.60;1.00
32215;DHT22;18708;53.124;23.190;2023-04-06T00:45:07;0.50;99.90
32215;DHT22;18708;53.124;23.190;2023-04-06T00:47:33;0.70;99.90
32215;DHT22;18708;53.124;23.190;2023-04-06T00:49:59;0.80;99.90
32215;DHT22;18708;53.124;23.190;2023-04-06T00:52:27;0.70;99.90
32215;DHT22;18708;53.124;23.190;2023-04-06T00:54:53;0.70;99.90
32215;DHT22;18708;53.124;23.190;2023-04-06T00:57:19;0.80;99.90
32215;DHT22;18708;53.124;23.190;2023-04-06T00:59:45;0.70;99.90
32215;DHT22;18708;53.124;23.190;2023-04-06T01:02:11;0.80;99.90
32215;DHT22;18708;53.124;23.190;2023-04-06T01:04:37;0.80;99.90
32215;DHT22;18708;53.124;23.190;2023-04-06T01:07:05;0.80;99.90
32215;DHT22;18708;53.124;23.190;2023-04-06T01:09:31;0.90;99.90
32215;DHT22;18708;53.124;23.190;2023-04-06T01:11:57;0.90;99.90
32215;DHT22;18708;53.124;23.190;2023-04-06T01:14:24;0.90;99.90
32215;DHT22;18708;53.124;23.190;2023-04-06T01:16:49;0.70;99.90
32215;DHT22;18708;53.124;23.190;2023-04-06T01:19:15;0.80;99.90
32215;DHT22;18708;53.124;23.190;2023-04-06T01:21:41;0.80;99.90
32215;DHT22;18708;53.124;23.190;2023-04-06T01:24:08;0.70;99.90
32215;DHT22;18708;53.124;23.190;2023-04-06T01:26:35;0.80;99.90
32215;DHT22;18708;53.124;23.190;2023-04-06T01:29:02;0.70;1.00
32215;DHT22;18708;53.124;23.190;2023-04-06T01:31:28;0.60;1.00
32215;DHT22;18708;53.124;23.190;2023-04-06T01:33:54;0.70;1.00
32215;DHT22;18708;53.124;23.190;2023-04-06T01:36:20;0.70;1.00
32215;DHT22;18708;53.124;23.190;2023-04-06T01:38:46;0.70;1.00
32215;DHT22;18708;53.124;23.190;2023-04-06T01:41:12;0.70;1.00
32215;DHT22;18708;53.124;23.190;2023-04-06T01:43:37;0.70;1.00
32215;DHT22;18708;53.124;23.190;2023-04-06T01:46:04;0.90;1.00
32215;DHT22;18708;53.124;23.190;2023-04-06T01:48:29;0.90;1.00
32215;DHT22;18708;53.124;23.190;2023-04-06T01:50:55;0.80;1.00
32215;DHT22;18708;53.124;23.190;2023-04-06T01:53:22;0.80;1.00
32215;DHT22;18708;53.124;23.190;2023-04-06T01:55:47;0.80;1.00
32215;DHT22;18708;53.124;23.190;2023-04-06T01:58:13;0.90;1.00
32215;DHT22;18708;53.124;23.190;2023-04-06T02:00:40;0.90;1.00
32215;DHT22;18708;53.124;23.190;2023-04-06T02:03:06;0.80;1.00
32215;DHT22;18708;53.124;23.190;2023-04-06T02:05:32;0.90;1.00
32215;DHT22;18708;53.124;23.190;2023-04-06T02:08:04;0.90;1.00
32215;DHT22;18708;53.124;23.190;2023-04-06T02:10:30;0.90;1.00
32215;DHT22;18708;53.124;23.190;2023-04-06T02:12:56;1.10;1.00
32215;DHT22;18708;53.124;23.190;2023-04-06T02:15:22;1.10;1.00
32215;DHT22;18708;53.124;23.190;2023-04-06T02:17:48;1.10;1.00
32215;DHT22;18708;53.124;23.190;2023-04-06T02:20:13;1.10;1.00
32215;DHT22;18708;53.124;23.190;2023-04-06T02:22:39;1.10;1.00
32215;DHT22;18708;53.124;23.190;2023-04-06T02:25:05;1.20;1.00
32215;DHT22;18708;53.124;23.190;2023-04-06T02:27:31;1.20;1.00
32215;DHT22;18708;53.124;23.190;2023-04-06T02:29:57;1.20;1.00
32215;DHT22;18708;53.124;23.190;2023-04-06T02:32:23;1.10;1.00
32215;DHT22;18708;53.124;23.190;2023-04-06T02:34:49;1.20;1.00
32215;DHT22;18708;53.124;23.190;2023-04-06T02:37:14;1.30;1.00
32215;DHT22;18708;53.124;23.190;2023-04-06T02:39:41;1.30;1.00
32215;DHT22;18708;53.124;23.190;2023-04-06T02:42:07;1.20;1.00
32215;DHT22;18708;53.124;23.190;2023-04-06T02:44:34;1.20;1.00
32215;DHT22;18708;53.124;23.190;2023-04-06T02:47:00;1.10;1.00
32215;DHT22;18708;53.124;23.190;2023-04-06T02:49:26;1.20;1.00
32215;DHT22;18708;53.124;23.190;2023-04-06T02:51:51;1.20;1.00
32215;DHT22;18708;53.124;23.190;2023-04-06T02:54:17;1.20;1.00
32215;DHT22;18708;53.124;23.190;2023-04-06T02:56:43;1.20;1.00
32215;DHT22;18708;53.124;23.190;2023-04-06T02:59:09;1.30;1.00
32215;DHT22;18708;53.124;23.190;2023-04-06T03:01:35;1.20;1.00
32215;DHT22;18708;53.124;23.190;2023-04-06T03:04:01;1.20;20.50
32215;DHT22;18708;53.124;23.190;2023-04-06T03:06:27;1.20;1.00
32215;DHT22;18708;53.124;23.190;2023-04-06T03:08:55;1.20;92.00
32215;DHT22;18708;53.124;23.190;2023-04-06T03:11:21;1.30;99.90
32215;DHT22;18708;53.124;23.190;2023-04-06T03:13:49;1.20;99.90
32215;DHT22;18708;53.124;23.190;2023-04-06T03:16:15;1.10;99.90
32215;DHT22;18708;53.124;23.190;2023-04-06T03:18:40;1.20;99.90
32215;DHT22;18708;53.124;23.190;2023-04-06T03:21:06;1.10;99.90
32215;DHT22;18708;53.124;23.190;2023-04-06T03:23:32;1.10;1.00
32215;DHT22;18708;53.124;23.190;2023-04-06T03:25:57;1.10;1.00
32215;DHT22;18708;53.124;23.190;2023-04-06T03:28:23;1.20;1.00
32215;DHT22;18708;53.124;23.190;2023-04-06T03:30:49;1.20;1.00
32215;DHT22;18708;53.124;23.190;2023-04-06T03:33:15;1.20;1.00
32215;DHT22;18708;53.124;23.190;2023-04-06T03:35:40;1.20;1.00
32215;DHT22;18708;53.124;23.190;2023-04-06T03:38:06;1.10;1.00
32215;DHT22;18708;53.124;23.190;2023-04-06T03:40:32;1.10;15.00
32215;DHT22;18708;53.124;23.190;2023-04-06T03:42:57;1.10;99.90
32215;DHT22;18708;53.124;23.190;2023-04-06T03:45:23;1.10;99.90
32215;DHT22;18708;53.124;23.190;2023-04-06T03:47:49;1.10;1.00
32215;DHT22;18708;53.124;23.190;2023-04-06T03:50:15;1.00;1.00
32215;DHT22;18708;53.124;23.190;2023-04-06T03:52:40;0.90;1.00
32215;DHT22;18708;53.124;23.190;2023-04-06T03:55:07;1.00;1.00
32215;DHT22;18708;53.124;23.190;2023-04-06T03:57:33;1.00;1.00
32215;DHT22;18708;53.124;23.190;2023-04-06T03:59:58;1.00;99.90
32215;DHT22;18708;53.124;23.190;2023-04-06T04:02:25;1.00;99.90
32215;DHT22;18708;53.124;23.190;2023-04-06T04:04:51;1.10;99.90
32215;DHT22;18708;53.124;23.190;2023-04-06T04:07:16;1.10;99.90
32215;DHT22;18708;53.124;23.190;2023-04-06T04:09:42;1.20;99.90
32215;DHT22;18708;53.124;23.190;2023-04-06T04:12:08;1.20;8.40
32215;DHT22;18708;53.124;23.190;2023-04-06T04:14:33;1.10;99.90
32215;DHT22;18708;53.124;23.190;2023-04-06T04:16:59;1.10;99.90
32215;DHT22;18708;53.124;23.190;2023-04-06T04:19:25;1.10;1.00
32215;DHT22;18708;53.124;23.190;2023-04-06T04:21:51;1.10;1.00
32215;DHT22;18708;53.124;23.190;2023-04-06T04:24:16;1.10;1.00
32215;DHT22;18708;53.124;23.190;2023-04-06T04:26:42;1.20;1.00
32215;DHT22;18708;53.124;23.190;2023-04-06T04:29:08;1.20;1.00
32215;DHT22;18708;53.124;23.190;2023-04-06T04:31:34;1.10;1.00
32215;DHT22;18708;53.124;23.190;2023-04-06T04:34:00;1.10;1.00
32215;DHT22;18708;53.124;23.190;2023-04-06T04:36:26;1.00;1.00
32215;DHT22;18708;53.124;23.190;2023-04-06T04:38:54;1.00;99.90
32215;DHT22;18708;53.124;23.190;2023-04-06T04:41:20;1.00;99.90
32215;DHT22;18708;53.124;23.190;2023-04-06T04:43:46;1.00;99.90
32215;DHT22;18708;53.124;23.190;2023-04-06T04:46:12;1.00;99.90
32215;DHT22;18708;53.124;23.190;2023-04-06T04:48:37;1.00;99.90
32215;DHT22;18708;53.124;23.190;2023-04-06T04:51:04;1.10;99.90
32215;DHT22;18708;53.124;23.190;2023-04-06T04:53:30;1.00;1.00
32215;DHT22;18708;53.124;23.190;2023-04-06T04:55:56;1.10;1.00
32215;DHT22;18708;53.124;23.190;2023-04-06T04:58:21;1.00;99.90
32215;DHT22;18708;53.124;23.190;2023-04-06T05:00:47;1.00;1.00
32215;DHT22;18708;53.124;23.190;2023-04-06T05:03:20;1.00;1.00
32215;DHT22;18708;53.124;23.190;2023-04-06T05:05:47;1.00;1.00
32215;DHT22;18708;53.124;23.190;2023-04-06T05:08:13;1.00;1.00
32215;DHT22;18708;53.124;23.190;2023-04-06T05:10:38;1.00;1.00
32215;DHT22;18708;53.124;23.190;2023-04-06T05:13:04;1.10;1.00
32215;DHT22;18708;53.124;23.190;2023-04-06T05:15:30;1.00;1.00
32215;DHT22;18708;53.124;23.190;2023-04-06T05:17:56;1.00;60.50
32215;DHT22;18708;53.124;23.190;2023-04-06T05:20:24;1.00;99.90
32215;DHT22;18708;53.124;23.190;2023-04-06T05:22:50;1.00;99.90
32215;DHT22;18708;53.124;23.190;2023-04-06T05:25:16;1.00;99.90
32215;DHT22;18708;53.124;23.190;2023-04-06T05:27:42;1.00;1.00
32215;DHT22;18708;53.124;23.190;2023-04-06T05:30:08;1.00;1.00
32215;DHT22;18708;53.124;23.190;2023-04-06T05:32:34;1.00;1.00
32215;DHT22;18708;53.124;23.190;2023-04-06T05:34:59;1.00;1.00
32215;DHT22;18708;53.124;23.190;2023-04-06T05:37:25;1.10;1.00
32215;DHT22;18708;53.124;23.190;2023-04-06T05:39:51;1.10;1.00
32215;DHT22;18708;53.124;23.190;2023-04-06T05:42:17;1.10;1.00
32215;DHT22;18708;53.124;23.190;2023-04-06T05:44:42;1.00;1.00
32215;DHT22;18708;53.124;23.190;2023-04-06T05:47:08;1.00;1.00
32215;DHT22;18708;53.124;23.190;2023-04-06T05:49:34;1.00;1.00
32215;DHT22;18708;53.124;23.190;2023-04-06T05:52:00;1.00;1.00
32215;DHT22;18708;53.124;23.190;2023-04-06T05:54:26;1.10;1.00
32215;DHT22;18708;53.124;23.190;2023-04-06T05:56:52;1.00;1.00
32215;DHT22;18708;53.124;23.190;2023-04-06T05:59:17;1.00;1.00
32215;DHT22;18708;53.124;23.190;2023-04-06T06:01:43;1.00;1.00
32215;DHT22;18708;53.124;23.190;2023-04-06T06:04:09;1.10;1.00
32215;DHT22;18708;53.124;23.190;2023-04-06T06:06:35;1.10;1.00
32215;DHT22;18708;53.124;23.190;2023-04-06T06:09:01;1.00;1.00
32215;DHT22;18708;53.124;23.190;2023-04-06T06:11:29;1.10;1.00
32215;DHT22;18708;53.124;23.190;2023-04-06T06:13:55;1.10;1.00
32215;DHT22;18708;53.124;23.190;2023-04-06T06:16:21;1.10;1.00
32215;DHT22;18708;53.124;23.190;2023-04-06T06:18:47;1.20;1.00
32215;DHT22;18708;53.124;23.190;2023-04-06T06:21:13;1.20;1.00
32215;DHT22;18708;53.124;23.190;2023-04-06T06:23:41;1.30;1.00
32215;DHT22;18708;53.124;23.190;2023-04-06T06:26:07;1.30;1.00
32215;DHT22;18708;53.124;23.190;2023-04-06T06:28:33;1.30;1.00
32215;DHT22;18708;53.124;23.190;2023-04-06T06:30:59;1.30;1.00
32215;DHT22;18708;53.124;23.190;2023-04-06T06:33:25;1.30;1.00
32215;DHT22;18708;53.124;23.190;2023-04-06T06:35:51;1.30;1.00
32215;DHT22;18708;53.124;23.190;2023-04-06T06:38:18;1.40;1.00
32215;DHT22;18708;53.124;23.190;2023-04-06T06:40:44;1.40;1.00
32215;DHT22;18708;53.124;23.190;2023-04-06T06:43:10;1.50;28.50
32215;DHT22;18708;53.124;23.190;2023-04-06T06:45:35;1.50;80.00
32215;DHT22;18708;53.124;23.190;2023-04-06T06:48:01;1.60;34.80
32215;DHT22;18708;53.124;23.190;2023-04-06T06:50:27;1.60;1.00
32215;DHT22;18708;53.124;23.190;2023-04-06T06:52:53;1.60;1.00
32215;DHT22;18708;53.124;23.190;2023-04-06T06:55:18;1.60;1.00
32215;DHT22;18708;53.124;23.190;2023-04-06T06:57:44;1.70;1.00
32215;DHT22;18708;53.124;23.190;2023-04-06T07:00:12;1.70;1.00
32215;DHT22;18708;53.124;23.190;2023-04-06T07:02:38;1.70;1.00
32215;DHT22;18708;53.124;23.190;2023-04-06T07:05:04;1.70;1.00
32215;DHT22;18708;53.124;23.190;2023-04-06T07:07:32;1.70;1.00
32215;DHT22;18708;53.124;23.190;2023-04-06T07:09:59;1.70;1.00
32215;DHT22;18708;53.124;23.190;2023-04-06T07:12:25;1.70;1.00
32215;DHT22;18708;53.124;23.190;2023-04-06T07:14:51;1.70;1.00
32215;DHT22;18708;53.124;23.190;2023-04-06T07:17:16;1.70;1.00
32215;DHT22;18708;53.124;23.190;2023-04-06T07:19:42;1.80;1.00
32215;DHT22;18708;53.124;23.190;2023-04-06T07:22:08;1.90;1.00
32215;DHT22;18708;53.124;23.190;2023-04-06T07:24:33;1.90;1.00
32215;DHT22;18708;53.124;23.190;2023-04-06T07:26:59;1.90;1.00
32215;DHT22;18708;53.124;23.190;2023-04-06T07:29:28;1.90;1.00
32215;DHT22;18708;53.124;23.190;2023-04-06T07:31:55;1.90;1.00
32215;DHT22;18708;53.124;23.190;2023-04-06T07:34:20;2.00;1.00
32215;DHT22;18708;53.124;23.190;2023-04-06T07:36:46;1.90;1.00
32215;DHT22;18708;53.124;23.190;2023-04-06T07:39:12;1.90;1.00
32215;DHT22;18708;53.124;23.190;2023-04-06T07:41:38;2.00;1.00
32215;DHT22;18708;53.124;23.190;2023-04-06T07:44:04;1.90;1.00
32215;DHT22;18708;53.124;23.190;2023-04-06T07:46:30;1.90;1.00
32215;DHT22;18708;53.124;23.190;2023-04-06T07:49:00;2.00;1.00
32215;DHT22;18708;53.124;23.190;2023-04-06T07:51:29;2.00;1.00
32215;DHT22;18708;53.124;23.190;2023-04-06T07:53:56;2.10;1.00
32215;DHT22;18708;53.124;23.190;2023-04-06T07:56:22;2.10;1.00
32215;DHT22;18708;53.124;23.190;2023-04-06T07:58:48;2.10;1.00
32215;DHT22;18708;53.124;23.190;2023-04-06T08:01:13;2.10;1.00
32215;DHT22;18708;53.124;23.190;2023-04-06T08:03:40;2.10;1.00
32215;DHT22;18708;53.124;23.190;2023-04-06T08:06:05;2.10;1.00
32215;DHT22;18708;53.124;23.190;2023-04-06T08:08:31;2.20;1.00
32215;DHT22;18708;53.124;23.190;2023-04-06T08:10:57;2.20;1.00
32215;DHT22;18708;53.124;23.190;2023-04-06T08:13:23;2.20;1.00
32215;DHT22;18708;53.124;23.190;2023-04-06T08:15:49;2.30;1.00
32215;DHT22;18708;53.124;23.190;2023-04-06T08:18:15;2.30;1.00
32215;DHT22;18708;53.124;23.190;2023-04-06T08:20:41;2.40;1.00
32215;DHT22;18708;53.124;23.190;2023-04-06T08:23:07;2.40;1.00
32215;DHT22;18708;53.124;23.190;2023-04-06T08:25:35;2.40;1.00
32215;DHT22;18708;53.124;23.190;2023-04-06T08:28:02;2.40;1.00
32215;DHT22;18708;53.124;23.190;2023-04-06T08:30:28;2.40;1.00
32215;DHT22;18708;53.124;23.190;2023-04-06T08:32:54;2.40;1.00
32215;DHT22;18708;53.124;23.190;2023-04-06T08:35:19;2.40;1.00
32215;DHT22;18708;53.124;23.190;2023-04-06T08:37:45;2.50;1.00
32215;DHT22;18708;53.124;23.190;2023-04-06T08:40:12;2.50;1.00
32215;DHT22;18708;53.124;23.190;2023-04-06T08:42:44;2.50;1.00
32215;DHT22;18708;53.124;23.190;2023-04-06T08:45:16;2.50;1.00
32215;DHT22;18708;53.124;23.190;2023-04-06T08:47:42;2.50;1.00
32215;DHT22;18708;53.124;23.190;2023-04-06T08:50:09;2.60;1.00
32215;DHT22;18708;53.124;23.190;2023-04-06T08:52:37;2.50;1.00
32215;DHT22;18708;53.124;23.190;2023-04-06T08:55:03;2.60;1.00
32215;DHT22;18708;53.124;23.190;2023-04-06T08:57:31;2.60;1.00
32215;DHT22;18708;53.124;23.190;2023-04-06T08:59:57;2.70;1.00
32215;DHT22;18708;53.124;23.190;2023-04-06T09:02:26;2.70;1.00
32215;DHT22;18708;53.124;23.190;2023-04-06T09:04:53;2.80;1.00
32215;DHT22;18708;53.124;23.190;2023-04-06T09:07:19;2.80;1.00
32215;DHT22;18708;53.124;23.190;2023-04-06T09:09:45;2.90;1.00
32215;DHT22;18708;53.124;23.190;2023-04-06T09:12:24;2.90;1.00
32215;DHT22;18708;53.124;23.190;2023-04-06T09:14:50;2.80;1.00
32215;DHT22;18708;53.124;23.190;2023-04-06T09:17:22;2.90;1.00
32215;DHT22;18708;53.124;23.190;2023-04-06T09:19:49;3.00;1.00
32215;DHT22;18708;53.124;23.190;2023-04-06T09:22:15;3.00;1.00
32215;DHT22;18708;53.124;23.190;2023-04-06T09:24:50;3.10;1.00
32215;DHT22;18708;53.124;23.190;2023-04-06T09:27:16;3.10;1.00
32215;DHT22;18708;53.124;23.190;2023-04-06T09:29:43;3.10;1.00
32215;DHT22;18708;53.124;23.190;2023-04-06T09:32:09;3.20;1.00
32215;DHT22;18708;53.124;23.190;2023-04-06T09:34:42;3.30;1.00
32215;DHT22;18708;53.124;23.190;2023-04-06T09:39:40;3.30;1.00
32215;DHT22;18708;53.124;23.190;2023-04-06T09:42:05;3.40;1.00
32215;DHT22;18708;53.124;23.190;2023-04-06T09:44:31;3.30;1.00
32215;DHT22;18708;53.124;23.190;2023-04-06T09:46:57;3.30;1.00
32215;DHT22;18708;53.124;23.190;2023-04-06T09:49:24;3.40;1.00
32215;DHT22;18708;53.124;23.190;2023-04-06T09:52:06;3.40;1.00
32215;DHT22;18708;53.124;23.190;2023-04-06T09:54:35;3.50;1.00
32215;DHT22;18708;53.124;23.190;2023-04-06T10:02:59;3.70;1.00
32215;DHT22;18708;53.124;23.190;2023-04-06T10:05:52;3.90;1.00
32215;DHT22;18708;53.124;23.190;2023-04-06T10:08:23;3.90;1.00
32215;DHT22;18708;53.124;23.190;2023-04-06T10:10:50;4.00;1.00
32215;DHT22;18708;53.124;23.190;2023-04-06T10:13:18;4.10;1.00
32215;DHT22;18708;53.124;23.190;2023-04-06T10:15:44;4.20;99.90
32215;DHT22;18708;53.124;23.190;2023-04-06T10:18:10;4.20;99.90
32215;DHT22;18708;53.124;23.190;2023-04-06T10:23:14;4.40;99.90
32215;DHT22;18708;53.124;23.190;2023-04-06T10:25:59;4.40;99.90
32215;DHT22;18708;53.124;23.190;2023-04-06T10:28:26;4.40;72.60
32215;DHT22;18708;53.124;23.190;2023-04-06T10:30:59;4.40;43.50
32215;DHT22;18708;53.124;23.190;2023-04-06T10:33:26;4.50;1.00
32215;DHT22;18708;53.124;23.190;2023-04-06T10:35:51;4.50;1.00
32215;DHT22;18708;53.124;23.190;2023-04-06T10:38:18;4.50;1.00
32215;DHT22;18708;53.124;23.190;2023-04-06T10:40:47;4.60;1.00
32215;DHT22;18708;53.124;23.190;2023-04-06T10:43:19;4.70;1.00
32215;DHT22;18708;53.124;23.190;2023-04-06T10:45:56;4.70;1.00
32215;DHT22;18708;53.124;23.190;2023-04-06T10:48:22;4.90;1.00
32215;DHT22;18708;53.124;23.190;2023-04-06T10:50:53;5.00;1.00
32215;DHT22;18708;53.124;23.190;2023-04-06T10:53:26;4.90;1.00
32215;DHT22;18708;53.124;23.190;2023-04-06T10:55:54;4.90;1.00
32215;DHT22;18708;53.124;23.190;2023-04-06T10:58:24;4.90;1.00
32215;DHT22;18708;53.124;23.190;2023-04-06T11:00:51;4.90;1.00
32215;DHT22;18708;53.124;23.190;2023-04-06T11:03:17;4.90;1.00
32215;DHT22;18708;53.124;23.190;2023-04-06T11:05:47;4.90;1.00
32215;DHT22;18708;53.124;23.190;2023-04-06T11:08:28;4.90;1.00
32215;DHT22;18708;53.124;23.190;2023-04-06T11:11:09;5.00;1.00
32215;DHT22;18708;53.124;23.190;2023-04-06T11:13:44;5.00;1.00
32215;DHT22;18708;53.124;23.190;2023-04-06T11:16:24;5.00;1.00
32215;DHT22;18708;53.124;23.190;2023-04-06T11:21:17;5.00;1.00
32215;DHT22;18708;53.124;23.190;2023-04-06T11:23:43;5.00;1.00
32215;DHT22;18708;53.124;23.190;2023-04-06T11:26:12;5.00;1.00
32215;DHT22;18708;53.124;23.190;2023-04-06T11:28:40;5.10;1.00
32215;DHT22;18708;53.124;23.190;2023-04-06T11:31:07;5.10;1.00
32215;DHT22;18708;53.124;23.190;2023-04-06T11:33:37;5.10;1.00
32215;DHT22;18708;53.124;23.190;2023-04-06T11:36:04;5.10;1.00
32215;DHT22;18708;53.124;23.190;2023-04-06T11:38:31;5.20;1.00
32215;DHT22;18708;53.124;23.190;2023-04-06T11:40:57;5.30;1.00
32215;DHT22;18708;53.124;23.190;2023-04-06T11:43:27;5.50;1.00
32215;DHT22;18708;53.124;23.190;2023-04-06T11:46:03;5.40;1.00
32215;DHT22;18708;53.124;23.190;2023-04-06T11:48:30;5.50;1.00
32215;DHT22;18708;53.124;23.190;2023-04-06T11:50:57;5.50;1.00
32215;DHT22;18708;53.124;23.190;2023-04-06T11:53:23;5.50;99.90
32215;DHT22;18708;53.124;23.190;2023-04-06T11:55:52;5.50;99.90
32215;DHT22;18708;53.124;23.190;2023-04-06T11:58:17;5.50;99.90
32215;DHT22;18708;53.124;23.190;2023-04-06T12:00:43;5.60;99.90
32215;DHT22;18708;53.124;23.190;2023-04-06T12:03:11;5.70;99.90
32215;DHT22;18708;53.124;23.190;2023-04-06T12:05:39;5.80;99.90
32215;DHT22;18708;53.124;23.190;2023-04-06T12:08:05;5.80;99.90
32215;DHT22;18708;53.124;23.190;2023-04-06T12:10:34;5.90;90.30
32215;DHT22;18708;53.124;23.190;2023-04-06T12:12:59;5.90;72.10
32215;DHT22;18708;53.124;23.190;2023-04-06T12:15:25;5.80;1.00
32215;DHT22;18708;53.124;23.190;2023-04-06T12:17:51;5.80;1.00
32215;DHT22;18708;53.124;23.190;2023-04-06T12:20:19;5.80;58.60
32215;DHT22;18708;53.124;23.190;2023-04-06T12:22:44;5.90;75.90
32215;DHT22;18708;53.124;23.190;2023-04-06T12:25:10;5.80;1.00
32215;DHT22;18708;53.124;23.190;2023-04-06T12:27:37;5.80;1.00
32215;DHT22;18708;53.124;23.190;2023-04-06T12:30:05;5.80;44.20
32215;DHT22;18708;53.124;23.190;2023-04-06T12:32:31;5.90;1.00
32215;DHT22;18708;53.124;23.190;2023-04-06T12:34:57;5.90;1.00
32215;DHT22;18708;53.124;23.190;2023-04-06T12:37:23;5.90;58.30
32215;DHT22;18708;53.124;23.190;2023-04-06T12:39:48;6.00;1.00
32215;DHT22;18708;53.124;23.190;2023-04-06T12:42:14;6.00;1.00
32215;DHT22;18708;53.124;23.190;2023-04-06T12:44:40;6.00;1.00
32215;DHT22;18708;53.124;23.190;2023-04-06T12:47:07;6.00;1.00
32215;DHT22;18708;53.124;23.190;2023-04-06T12:49:33;5.80;1.00
32215;DHT22;18708;53.124;23.190;2023-04-06T12:51:59;5.70;1.00
32215;DHT22;18708;53.124;23.190;2023-04-06T12:54:25;5.80;99.90
32215;DHT22;18708;53.124;23.190;2023-04-06T12:56:52;5.70;99.90
32215;DHT22;18708;53.124;23.190;2023-04-06T12:59:17;5.80;99.90
32215;DHT22;18708;53.124;23.190;2023-04-06T13:01:43;5.80;99.90
32215;DHT22;18708;53.124;23.190;2023-04-06T13:04:09;5.70;1.00
32215;DHT22;18708;53.124;23.190;2023-04-06T13:06:35;5.80;17.20
32215;DHT22;18708;53.124;23.190;2023-04-06T13:09:01;5.80;99.90
32215;DHT22;18708;53.124;23.190;2023-04-06T13:11:27;5.80;9.90
32215;DHT22;18708;53.124;23.190;2023-04-06T13:13:52;5.80;1.00
32215;DHT22;18708;53.124;23.190;2023-04-06T13:16:18;5.80;99.90
32215;DHT22;18708;53.124;23.190;2023-04-06T13:18:44;5.70;99.90
32215;DHT22;18708;53.124;23.190;2023-04-06T13:21:13;5.70;99.90
32215;DHT22;18708;53.124;23.190;2023-04-06T13:23:40;5.70;99.90
32215;DHT22;18708;53.124;23.190;2023-04-06T13:26:07;5.70;99.90
32215;DHT22;18708;53.124;23.190;2023-04-06T13:28:34;5.70;1.00
32215;DHT22;18708;53.124;23.190;2023-04-06T13:31:01;5.60;1.00
32215;DHT22;18708;53.124;23.190;2023-04-06T13:33:28;5.70;1.00
32215;DHT22;18708;53.124;23.190;2023-04-06T13:35:54;5.60;1.00
32215;DHT22;18708;53.124;23.190;2023-04-06T13:38:20;5.60;1.00
32215;DHT22;18708;53.124;23.190;2023-04-06T13:40:46;5.50;1.00
32215;DHT22;18708;53.124;23.190;2023-04-06T13:43:11;5.60;1.00
32215;DHT22;18708;53.124;23.190;2023-04-06T13:45:38;5.50;1.00
32215;DHT22;18708;53.124;23.190;2023-04-06T13:48:04;5.60;1.00
32215;DHT22;18708;53.124;23.190;2023-04-06T13:50:30;5.50;1.00
32215;DHT22;18708;53.124;23.190;2023-04-06T13:52:55;5.50;1.00
32215;DHT22;18708;53.124;23.190;2023-04-06T13:55:22;5.60;1.00
32215;DHT22;18708;53.124;23.190;2023-04-06T13:57:50;5.50;1.00
32215;DHT22;18708;53.124;23.190;2023-04-06T14:00:16;5.50;7.20
32215;DHT22;18708;53.124;23.190;2023-04-06T14:02:42;5.50;1.00
32215;DHT22;18708;53.124;23.190;2023-04-06T14:05:08;5.60;1.00
32215;DHT22;18708;53.124;23.190;2023-04-06T14:07:34;5.50;1.00
32215;DHT22;18708;53.124;23.190;2023-04-06T14:09:59;5.50;1.00
32215;DHT22;18708;53.124;23.190;2023-04-06T14:12:25;5.50;1.00
32215;DHT22;18708;53.124;23.190;2023-04-06T14:14:52;5.50;1.00
32215;DHT22;18708;53.124;23.190;2023-04-06T14:17:18;5.40;58.40
32215;DHT22;18708;53.124;23.190;2023-04-06T14:19:43;5.40;99.90
32215;DHT22;18708;53.124;23.190;2023-04-06T14:22:09;5.40;99.90
32215;DHT22;18708;53.124;23.190;2023-04-06T14:24:36;5.40;99.90
32215;DHT22;18708;53.124;23.190;2023-04-06T14:27:02;5.30;99.90
32215;DHT22;18708;53.124;23.190;2023-04-06T14:29:28;5.40;99.90
32215;DHT22;18708;53.124;23.190;2023-04-06T14:31:54;5.50;99.90
32215;DHT22;18708;53.124;23.190;2023-04-06T14:34:25;5.60;99.90
32215;DHT22;18708;53.124;23.190;2023-04-06T14:36:51;5.60;99.90
32215;DHT22;18708;53.124;23.190;2023-04-06T14:39:17;5.50;99.90
32215;DHT22;18708;53.124;23.190;2023-04-06T14:41:43;5.60;99.90
32215;DHT22;18708;53.124;23.190;2023-04-06T14:44:09;5.50;99.90
32215;DHT22;18708;53.124;23.190;2023-04-06T14:46:39;5.60;99.90
32215;DHT22;18708;53.124;23.190;2023-04-06T14:49:05;5.60;99.90
32215;DHT22;18708;53.124;23.190;2023-04-06T14:51:33;5.60;99.90
32215;DHT22;18708;53.124;23.190;2023-04-06T14:54:00;5.60;99.90
32215;DHT22;18708;53.124;23.190;2023-04-06T14:56:28;5.60;99.90
32215;DHT22;18708;53.124;23.190;2023-04-06T14:59:00;5.60;99.90
32215;DHT22;18708;53.124;23.190;2023-04-06T15:01:29;5.50;99.90
32215;DHT22;18708;53.124;23.190;2023-04-06T15:03:55;5.50;1.00
32215;DHT22;18708;53.124;23.190;2023-04-06T15:06:22;5.50;1.00
32215;DHT22;18708;53.124;23.190;2023-04-06T15:08:48;5.60;1.00
32215;DHT22;18708;53.124;23.190;2023-04-06T15:11:15;5.50;1.00
32215;DHT22;18708;53.124;23.190;2023-04-06T15:13:41;5.50;1.00
32215;DHT22;18708;53.124;23.190;2023-04-06T15:16:07;5.40;1.00
32215;DHT22;18708;53.124;23.190;2023-04-06T15:18:33;5.50;1.00
32215;DHT22;18708;53.124;23.190;2023-04-06T15:21:00;5.60;1.00
32215;DHT22;18708;53.124;23.190;2023-04-06T15:23:26;5.50;1.00
32215;DHT22;18708;53.124;23.190;2023-04-06T15:25:55;5.50;1.00
32215;DHT22;18708;53.124;23.190;2023-04-06T15:28:21;5.50;1.00
32215;DHT22;18708;53.124;23.190;2023-04-06T15:30:46;5.50;1.00
32215;DHT22;18708;53.124;23.190;2023-04-06T15:33:12;5.50;1.00
32215;DHT22;18708;53.124;23.190;2023-04-06T15:35:38;5.50;1.00
32215;DHT22;18708;53.124;23.190;2023-04-06T15:38:10;5.40;1.00
32215;DHT22;18708;53.124;23.190;2023-04-06T15:40:48;5.40;1.00
32215;DHT22;18708;53.124;23.190;2023-04-06T15:43:14;5.50;1.00
32215;DHT22;18708;53.124;23.190;2023-04-06T15:45:40;5.50;1.00
32215;DHT22;18708;53.124;23.190;2023-04-06T15:48:06;5.60;1.00
32215;DHT22;18708;53.124;23.190;2023-04-06T15:50:33;5.60;1.00
32215;DHT22;18708;53.124;23.190;2023-04-06T15:52:59;5.60;1.00